La Guadeloupe, Canada
Current Conditions -  °F | °C
As of 4:00 AM on Tuesday 21 Oct 2014 (Local Time) from CYSC Reporting Station
Overcast Overcast  
Wind Chill: 35°   Ceiling: 9300
Heat Index: 39°   Visibility: 9mi
Dew Point: 37°   Wind: 6mph
Humidity: 93%   Direction: 70°ENE
Pressure: 29.95"   Gusts: NA
Location:  45.97°N, 70.95°W
Report Text: CYSC 210800Z AUTO 07005KT 9SM FEW075 OVC093 04/03 A2995 RMK SLP150
Loading
Personal Weather Stations






























Interactive Weather Map
Tropical Storm Tracking
New forecast layout! Learn more

10-Day Weather Forecast

Advertisements
Track Severe Weather on mobile